createdAt,value
2019-02-28T17:11:23.945Z,12.20
2019-02-28T17:13:54.739Z,12.20
2019-02-28T17:16:25.563Z,12.20
2019-02-28T17:18:56.806Z,12.10
2019-02-28T17:21:25.586Z,12.10
2019-02-28T17:23:54.723Z,12.10
2019-02-28T17:26:28.402Z,12.00
2019-02-28T17:28:58.069Z,12.00
2019-02-28T17:31:31.779Z,12.00
2019-02-28T17:34:01.011Z,11.90
2019-02-28T17:36:30.143Z,11.90
2019-02-28T17:38:59.320Z,11.90
2019-02-28T17:41:28.507Z,11.80
2019-02-28T17:44:26.411Z,11.80
2019-02-28T17:47:01.389Z,11.80
2019-02-28T17:50:05.765Z,11.80
2019-02-28T17:52:50.649Z,11.70
2019-02-28T17:55:42.651Z,11.70
2019-02-28T17:58:34.567Z,11.70
2019-02-28T18:01:34.860Z,11.70
2019-02-28T18:05:00.090Z,11.60
2019-02-28T18:08:04.236Z,11.60
2019-02-28T18:11:23.228Z,11.60
2019-02-28T18:14:14.353Z,11.60
2019-02-28T18:17:18.517Z,11.60
2019-02-28T18:20:20.997Z,11.60
2019-02-28T18:23:06.433Z,11.50
2019-02-28T18:26:04.529Z,11.50
2019-02-28T18:28:58.772Z,11.50
2019-02-28T18:31:28.010Z,11.50
2019-02-28T18:34:00.090Z,11.40
2019-02-28T18:36:33.330Z,11.40
2019-02-28T18:39:02.698Z,11.40
2019-02-28T18:41:31.859Z,11.40
2019-02-28T18:44:03.576Z,11.40
2019-02-28T18:46:31.927Z,11.40
2019-02-28T18:49:01.170Z,11.40
2019-02-28T18:51:32.097Z,11.40
2019-02-28T18:54:01.388Z,11.40
2019-02-28T18:56:30.574Z,11.40
2019-02-28T18:58:59.693Z,11.40
2019-02-28T19:01:29.059Z,11.30
2019-02-28T19:03:58.209Z,11.30
2019-02-28T19:06:27.370Z,11.30
2019-02-28T19:08:56.528Z,11.30
2019-02-28T19:11:25.695Z,11.30
2019-02-28T19:13:56.507Z,11.30
2019-02-28T19:16:25.734Z,11.30
2019-02-28T19:18:55.085Z,11.30
2019-02-28T19:21:24.248Z,11.30
2019-02-28T19:23:53.399Z,11.30
2019-02-28T19:26:22.544Z,11.30
2019-02-28T19:28:51.684Z,11.30
2019-02-28T19:31:20.866Z,11.30
2019-02-28T19:33:50.095Z,11.30
2019-02-28T19:36:19.303Z,11.30
2019-02-28T19:38:48.494Z,11.30
2019-02-28T19:41:17.732Z,11.30
2019-02-28T19:43:46.878Z,11.30
2019-02-28T19:46:16.083Z,11.20
2019-02-28T19:48:45.242Z,11.20
2019-02-28T19:51:17.405Z,11.20
2019-02-28T19:53:46.577Z,11.20
2019-02-28T19:56:15.718Z,11.20
2019-02-28T19:58:44.978Z,11.10
2019-02-28T20:01:18.919Z,11.10
2019-02-28T20:03:44.987Z,11.10
2019-02-28T20:06:14.146Z,11.10
2019-02-28T20:08:43.303Z,11.10
2019-02-28T20:11:12.543Z,11.10
2019-02-28T20:13:41.754Z,11.10
2019-02-28T20:16:10.944Z,11.00
2019-02-28T20:18:40.140Z,11.10
2019-02-28T20:21:09.538Z,11.00
2019-02-28T20:23:38.719Z,11.10
2019-02-28T20:26:07.921Z,11.10
2019-02-28T20:28:37.104Z,11.00
2019-02-28T20:31:06.452Z,11.10
2019-02-28T20:33:35.640Z,11.10
2019-02-28T20:36:07.156Z,11.00
2019-02-28T20:38:36.309Z,11.10
2019-02-28T20:41:05.458Z,11.10
2019-02-28T20:43:34.634Z,11.10
2019-02-28T20:46:03.818Z,11.10
2019-02-28T20:48:32.933Z,11.10
2019-02-28T20:51:02.095Z,11.10
2019-02-28T20:53:31.241Z,11.10
2019-02-28T20:56:01.052Z,11.10
2019-02-28T20:58:34.770Z,11.10
2019-02-28T21:01:04.362Z,11.10
2019-02-28T21:03:33.539Z,11.10
2019-02-28T21:06:02.734Z,11.10
2019-02-28T21:08:31.883Z,11.10
2019-02-28T21:11:01.055Z,11.10
2019-02-28T21:13:30.205Z,11.10
2019-02-28T21:15:59.379Z,11.10
2019-02-28T21:18:28.518Z,11.10
2019-02-28T21:20:57.666Z,11.10
2019-02-28T21:23:26.845Z,11.10
2019-02-28T21:25:57.344Z,11.10
2019-02-28T21:28:26.587Z,11.10
2019-02-28T21:30:58.348Z,11.00
2019-02-28T21:33:27.475Z,11.10
2019-02-28T21:35:56.683Z,11.10
2019-02-28T21:38:25.817Z,11.10
2019-02-28T21:40:55.138Z,11.00
2019-02-28T21:43:24.296Z,11.00
2019-02-28T21:45:53.492Z,11.00
2019-02-28T21:48:22.608Z,11.00
2019-02-28T21:50:51.794Z,11.00
2019-02-28T21:53:20.964Z,11.00
2019-02-28T21:55:50.104Z,11.00
2019-02-28T21:58:19.262Z,11.00
2019-02-28T22:00:48.402Z,11.00
2019-02-28T22:03:17.570Z,11.00
2019-02-28T22:05:46.769Z,11.00
2019-02-28T22:08:15.940Z,11.00
2019-02-28T22:10:45.284Z,11.00
2019-02-28T22:13:14.441Z,11.00
2019-02-28T22:15:43.579Z,11.00
2019-02-28T22:18:13.061Z,11.00
2019-02-28T22:20:42.193Z,11.00
2019-02-28T22:23:11.457Z,11.00
2019-02-28T22:25:40.669Z,11.00
2019-02-28T22:28:09.970Z,11.00
2019-02-28T22:30:43.176Z,11.00
2019-02-28T22:33:31.890Z,11.00
2019-02-28T22:36:05.418Z,10.90
2019-02-28T22:38:34.558Z,11.00
2019-02-28T22:41:03.746Z,10.90
2019-02-28T22:43:32.889Z,11.00
2019-02-28T22:46:02.049Z,10.90
2019-02-28T22:48:31.195Z,10.90
2019-02-28T22:51:00.358Z,10.90
2019-02-28T22:53:29.571Z,11.00
2019-02-28T22:55:58.695Z,10.90
2019-02-28T22:58:27.850Z,11.00
2019-02-28T23:01:11.442Z,11.00
2019-02-28T23:03:40.669Z,11.00
2019-02-28T23:06:09.808Z,10.90
2019-02-28T23:08:39.018Z,10.90
2019-02-28T23:11:08.166Z,10.90
2019-02-28T23:13:37.406Z,10.90
2019-02-28T23:16:06.560Z,10.90
2019-02-28T23:18:35.691Z,11.00
2019-02-28T23:21:04.911Z,10.90
2019-02-28T23:23:35.690Z,10.90
2019-02-28T23:26:13.226Z,11.00
2019-02-28T23:28:47.138Z,11.00
2019-02-28T23:31:30.317Z,11.00
2019-02-28T23:34:04.331Z,10.90
2019-02-28T23:36:33.485Z,11.00
2019-02-28T23:39:02.622Z,10.90
2019-02-28T23:41:31.801Z,10.90
2019-02-28T23:44:01.031Z,10.90
2019-02-28T23:46:30.159Z,10.90
2019-02-28T23:48:59.328Z,10.90
2019-02-28T23:51:28.471Z,10.90
2019-02-28T23:53:57.631Z,10.90
2019-02-28T23:56:26.785Z,10.90
2019-02-28T23:58:55.968Z,10.90
